createdAt,value
2017-09-01T00:00:50.665Z,17.15
2017-09-01T00:03:18.507Z,17.25
2017-09-01T00:05:45.991Z,17.21
2017-09-01T00:08:13.484Z,17.22
2017-09-01T00:10:40.975Z,17.16
2017-09-01T00:13:08.454Z,17.16
2017-09-01T00:15:35.943Z,17.17
2017-09-01T00:18:04.429Z,17.19
2017-09-01T00:20:31.948Z,17.13
2017-09-01T00:22:59.422Z,17.00
2017-09-01T00:25:27.603Z,16.65
2017-09-01T00:27:55.091Z,16.81
2017-09-01T00:30:22.596Z,16.78
2017-09-01T00:32:50.058Z,16.79
2017-09-01T00:35:17.546Z,16.81
2017-09-01T00:37:45.014Z,16.79
2017-09-01T00:40:12.507Z,16.88
2017-09-01T00:42:39.993Z,16.83
2017-09-01T00:45:07.449Z,16.78
2017-09-01T00:47:34.936Z,16.74
2017-09-01T00:50:02.391Z,16.68
2017-09-01T00:52:29.881Z,16.60
2017-09-01T00:54:57.367Z,16.67
2017-09-01T00:57:24.835Z,16.57
2017-09-01T00:59:52.326Z,16.58
2017-09-01T01:02:19.788Z,16.55
2017-09-01T01:04:47.279Z,16.56
2017-09-01T01:07:14.735Z,16.58
2017-09-01T01:09:42.257Z,16.55
2017-09-01T01:12:09.713Z,16.53
2017-09-01T01:14:37.154Z,16.47
2017-09-01T01:17:05.054Z,16.48
2017-09-01T01:19:32.545Z,16.38
2017-09-01T01:22:00.043Z,16.42
2017-09-01T01:24:27.503Z,16.40
2017-09-01T01:26:55.015Z,16.44
2017-09-01T01:29:22.495Z,16.43
2017-09-01T01:31:50.023Z,16.37
2017-09-01T01:34:17.496Z,16.42
2017-09-01T01:36:44.969Z,16.37
2017-09-01T01:39:12.470Z,16.43
2017-09-01T01:41:39.942Z,16.40
2017-09-01T01:44:07.438Z,16.34
2017-09-01T01:46:34.900Z,16.34
2017-09-01T01:49:02.381Z,16.34
2017-09-01T01:51:29.837Z,16.33
2017-09-01T01:53:57.672Z,16.26
2017-09-01T01:56:25.143Z,16.21
2017-09-01T01:58:52.615Z,16.11
2017-09-01T02:01:20.087Z,16.11
2017-09-01T02:03:47.555Z,16.08
2017-09-01T02:06:15.043Z,16.20
2017-09-01T02:08:42.512Z,16.20
2017-09-01T02:11:10.007Z,16.09
2017-09-01T02:13:37.778Z,16.03
2017-09-01T02:16:05.254Z,15.63
2017-09-01T02:18:32.762Z,16.04
2017-09-01T02:21:00.258Z,15.95
2017-09-01T02:23:27.728Z,15.99
2017-09-01T02:25:55.186Z,16.07
2017-09-01T02:28:22.665Z,16.08
2017-09-01T02:30:50.135Z,16.01
2017-09-01T02:33:17.618Z,16.03
2017-09-01T02:35:45.123Z,15.98
2017-09-01T02:38:12.594Z,15.95
2017-09-01T02:40:40.105Z,15.84
2017-09-01T02:43:07.582Z,15.72
2017-09-01T02:45:35.043Z,15.70
2017-09-01T02:48:03.076Z,15.83
2017-09-01T02:50:30.574Z,15.81
2017-09-01T02:52:58.036Z,15.81
2017-09-01T02:55:25.533Z,15.86
2017-09-01T02:57:53.007Z,15.90
2017-09-01T03:00:20.507Z,15.89
2017-09-01T03:02:47.997Z,15.74
2017-09-01T03:05:15.473Z,15.72
2017-09-01T03:07:42.997Z,15.77
2017-09-01T03:10:10.483Z,15.65
2017-09-01T03:12:37.976Z,15.67
2017-09-01T03:15:05.431Z,15.63
2017-09-01T03:17:33.021Z,15.56
2017-09-01T03:20:00.520Z,15.34
2017-09-01T03:22:28.022Z,15.30
2017-09-01T03:24:55.491Z,15.43
2017-09-01T03:27:23.079Z,15.59
2017-09-01T03:29:50.551Z,15.58
2017-09-01T03:32:18.014Z,15.59
2017-09-01T03:34:45.560Z,15.59
2017-09-01T03:37:13.034Z,15.59
2017-09-01T03:39:40.570Z,15.51
2017-09-01T03:42:08.043Z,15.40
2017-09-01T03:44:35.529Z,15.38
2017-09-01T03:47:02.987Z,15.46
2017-09-01T03:49:30.506Z,15.43
2017-09-01T03:51:57.979Z,15.32
2017-09-01T03:54:25.477Z,15.31
2017-09-01T03:56:52.933Z,15.56
2017-09-01T03:59:20.415Z,15.65
2017-09-01T04:01:47.892Z,15.65
2017-09-01T04:04:15.377Z,15.52
2017-09-01T04:06:42.866Z,15.49
2017-09-01T04:09:10.319Z,15.62
2017-09-01T04:11:37.835Z,15.39
2017-09-01T04:14:05.624Z,15.27
2017-09-01T04:16:33.127Z,15.52
2017-09-01T04:19:00.601Z,15.53
2017-09-01T04:21:28.084Z,15.45
2017-09-01T04:23:55.558Z,15.29
2017-09-01T04:26:23.069Z,15.24
2017-09-01T04:28:50.553Z,15.25
2017-09-01T04:31:18.013Z,15.30
2017-09-01T04:33:45.536Z,15.35
2017-09-01T04:36:13.027Z,15.35
2017-09-01T04:38:40.518Z,15.30
2017-09-01T04:41:07.972Z,15.38
2017-09-01T04:43:35.437Z,15.37
2017-09-01T04:46:02.925Z,15.39
2017-09-01T04:48:30.398Z,15.37
2017-09-01T04:50:57.898Z,15.28
2017-09-01T04:53:25.387Z,15.23
2017-09-01T04:55:52.949Z,15.18
2017-09-01T04:58:20.402Z,15.21
2017-09-01T05:00:47.922Z,15.20
2017-09-01T05:03:15.377Z,15.06
2017-09-01T05:05:42.886Z,14.99
2017-09-01T05:08:10.354Z,15.03
2017-09-01T05:10:37.956Z,15.21
2017-09-01T05:13:05.416Z,15.27
2017-09-01T05:15:32.888Z,15.20
2017-09-01T05:18:00.392Z,15.26
2017-09-01T05:20:27.846Z,15.20
2017-09-01T05:22:55.340Z,15.21
2017-09-01T05:25:22.859Z,15.16
2017-09-01T05:27:50.371Z,15.19
2017-09-01T05:30:18.060Z,15.20
2017-09-01T05:32:45.559Z,15.23
2017-09-01T05:35:13.020Z,15.32
2017-09-01T05:37:40.501Z,15.18
2017-09-01T05:40:08.043Z,15.18
2017-09-01T05:42:35.517Z,15.31
2017-09-01T05:45:03.028Z,15.31
2017-09-01T05:47:30.515Z,15.00
2017-09-01T05:49:58.013Z,15.11
2017-09-01T05:52:25.598Z,15.17
2017-09-01T05:54:53.097Z,15.05
2017-09-01T05:57:20.639Z,14.94
2017-09-01T05:59:48.162Z,15.06
2017-09-01T06:02:15.683Z,14.97
2017-09-01T06:04:43.163Z,15.29
2017-09-01T06:07:10.651Z,15.26
2017-09-01T06:09:38.174Z,15.28
2017-09-01T06:12:06.639Z,15.08
2017-09-01T06:14:34.092Z,14.98
2017-09-01T06:17:01.586Z,14.83
2017-09-01T06:19:29.171Z,14.88
2017-09-01T06:21:56.669Z,14.82
2017-09-01T06:24:24.188Z,14.98
2017-09-01T06:26:51.747Z,14.93
2017-09-01T06:29:19.250Z,14.88
2017-09-01T06:31:46.726Z,15.02
2017-09-01T06:34:14.225Z,14.60
2017-09-01T06:36:41.718Z,14.49
2017-09-01T06:39:09.243Z,14.62
2017-09-01T06:41:36.706Z,14.92
2017-09-01T06:44:04.699Z,14.83
2017-09-01T06:46:32.178Z,14.90
2017-09-01T06:48:59.678Z,15.02
2017-09-01T06:51:27.191Z,14.54
2017-09-01T06:53:54.681Z,14.55
2017-09-01T06:56:22.184Z,14.78
2017-09-01T06:58:49.664Z,14.77
2017-09-01T07:01:17.164Z,14.57
2017-09-01T07:03:44.692Z,14.75
2017-09-01T07:06:12.169Z,14.52
2017-09-01T07:08:39.660Z,14.63
2017-09-01T07:11:07.163Z,14.65
2017-09-01T07:13:34.647Z,14.88
2017-09-01T07:16:02.120Z,14.83
2017-09-01T07:18:29.605Z,15.05
2017-09-01T07:20:57.129Z,15.28
2017-09-01T07:23:24.666Z,15.43
2017-09-01T07:25:52.187Z,15.41
2017-09-01T07:28:20.579Z,15.63
2017-09-01T07:30:48.214Z,15.67
2017-09-01T07:33:15.747Z,15.61
2017-09-01T07:35:43.243Z,15.65
2017-09-01T07:38:10.749Z,15.65
2017-09-01T07:40:38.214Z,15.80
2017-09-01T07:43:05.730Z,15.91
2017-09-01T07:45:33.257Z,16.16
2017-09-01T07:48:01.078Z,16.27
2017-09-01T07:50:28.597Z,16.37
2017-09-01T07:52:56.078Z,16.51
2017-09-01T07:55:23.547Z,16.40
2017-09-01T07:57:51.042Z,16.28
2017-09-01T08:00:18.537Z,16.36
2017-09-01T08:02:46.327Z,16.47
2017-09-01T08:05:13.815Z,16.59
2017-09-01T08:07:41.331Z,16.66
2017-09-01T08:10:08.803Z,16.77
2017-09-01T08:12:36.299Z,16.74
2017-09-01T08:15:04.784Z,16.50
2017-09-01T08:17:32.282Z,16.76
2017-09-01T08:20:00.477Z,16.77
2017-09-01T08:22:28.022Z,16.94
2017-09-01T08:24:55.527Z,17.11
2017-09-01T08:27:28.464Z,17.25
2017-09-01T08:29:55.964Z,17.10
2017-09-01T08:32:24.079Z,17.23
2017-09-01T08:34:51.619Z,17.38
2017-09-01T08:37:19.097Z,17.49
2017-09-01T08:39:46.696Z,17.59
2017-09-01T08:42:14.224Z,17.68
2017-09-01T08:44:41.756Z,17.82
2017-09-01T08:47:09.328Z,17.79
2017-09-01T08:49:36.846Z,17.97
2017-09-01T08:52:05.441Z,17.96
2017-09-01T08:54:32.984Z,18.04
2017-09-01T08:57:00.535Z,18.09
2017-09-01T08:59:28.068Z,18.16
2017-09-01T09:01:55.624Z,18.27
2017-09-01T09:04:23.115Z,18.35
2017-09-01T09:06:50.655Z,18.34
2017-09-01T09:09:18.160Z,18.30
2017-09-01T09:11:46.039Z,18.28
2017-09-01T09:14:13.535Z,18.27
2017-09-01T09:16:41.011Z,18.34
2017-09-01T09:19:08.572Z,18.54
2017-09-01T09:21:36.112Z,18.57
2017-09-01T09:24:04.498Z,18.82
2017-09-01T09:26:31.967Z,19.07
2017-09-01T09:28:59.479Z,19.24
2017-09-01T09:31:26.991Z,19.35
2017-09-01T09:33:54.490Z,19.46
2017-09-01T09:36:22.099Z,19.50
2017-09-01T09:38:49.648Z,19.66
2017-09-01T09:41:17.111Z,19.77
2017-09-01T09:43:44.608Z,19.77
2017-09-01T09:46:12.128Z,19.89
2017-09-01T09:48:39.598Z,19.78
2017-09-01T09:51:07.111Z,20.21
2017-09-01T09:53:34.614Z,20.17
2017-09-01T09:56:02.148Z,20.26
2017-09-01T09:58:29.757Z,20.27
2017-09-01T10:00:57.274Z,20.30
2017-09-01T10:03:24.762Z,20.37
2017-09-01T10:05:52.305Z,20.43
2017-09-01T10:08:19.806Z,20.12
2017-09-01T10:10:47.313Z,19.84
2017-09-01T10:13:14.790Z,19.99
2017-09-01T10:15:42.295Z,20.43
2017-09-01T10:18:09.790Z,20.74
2017-09-01T10:20:37.308Z,20.82
2017-09-01T10:23:04.882Z,20.61
2017-09-01T10:25:33.266Z,20.99
2017-09-01T10:28:00.779Z,21.20
2017-09-01T10:30:28.267Z,21.42
2017-09-01T10:32:55.777Z,20.92
2017-09-01T10:35:23.334Z,20.85
2017-09-01T10:37:50.877Z,21.26
2017-09-01T10:40:18.365Z,21.67
2017-09-01T10:42:45.957Z,21.82
2017-09-01T10:45:13.489Z,21.46
2017-09-01T10:47:52.860Z,21.92
2017-09-01T10:50:31.899Z,21.95
2017-09-01T10:53:11.235Z,21.86
2017-09-01T10:55:50.410Z,22.24
2017-09-01T10:58:25.762Z,22.37
2017-09-01T11:00:53.294Z,22.46
2017-09-01T11:03:20.820Z,22.56
2017-09-01T11:05:49.830Z,22.49
2017-09-01T11:08:17.301Z,22.28
2017-09-01T11:10:44.858Z,21.81
2017-09-01T11:13:12.361Z,21.29
2017-09-01T11:15:39.900Z,21.19
2017-09-01T11:18:07.397Z,21.26
2017-09-01T11:23:49.742Z,21.58
2017-09-01T11:26:18.223Z,21.98
2017-09-01T11:28:45.752Z,22.40
2017-09-01T11:31:13.276Z,22.69
2017-09-01T11:33:40.778Z,22.98
2017-09-01T11:36:08.323Z,23.12
2017-09-01T11:38:35.875Z,23.22
2017-09-01T11:41:04.390Z,23.17
2017-09-01T11:43:31.873Z,23.34
2017-09-01T11:45:59.349Z,23.49
2017-09-01T11:48:26.830Z,23.66
2017-09-01T11:50:54.312Z,23.62
2017-09-01T11:53:21.832Z,23.86
2017-09-01T11:55:49.318Z,24.01
2017-09-01T11:58:16.873Z,23.84
2017-09-01T12:00:44.358Z,23.92
2017-09-01T12:03:12.440Z,23.92
2017-09-01T12:05:39.920Z,23.93
2017-09-01T12:08:08.127Z,23.97
2017-09-01T12:10:35.594Z,24.11
2017-09-01T12:13:03.112Z,24.17
2017-09-01T12:15:30.606Z,24.35
2017-09-01T12:17:58.071Z,24.39
2017-09-01T12:20:25.542Z,24.37
2017-09-01T12:22:53.052Z,24.22
2017-09-01T12:25:20.531Z,24.32
2017-09-01T12:27:48.021Z,24.58
2017-09-01T12:30:16.777Z,23.89
2017-09-01T12:32:44.265Z,23.58
2017-09-01T12:35:11.805Z,24.18
2017-09-01T12:37:39.321Z,24.50
2017-09-01T12:40:06.885Z,24.81
2017-09-01T12:42:34.361Z,23.98
2017-09-01T12:45:01.869Z,24.45
2017-09-01T12:47:29.357Z,24.09
2017-09-01T12:49:56.928Z,23.97
2017-09-01T12:52:25.362Z,24.12
2017-09-01T12:54:52.866Z,24.19
2017-09-01T12:57:21.283Z,24.50
2017-09-01T12:59:48.843Z,25.03
2017-09-01T13:02:16.361Z,25.01
2017-09-01T13:04:43.883Z,24.69
2017-09-01T13:07:11.392Z,24.53
2017-09-01T13:09:38.913Z,24.48
2017-09-01T13:12:06.455Z,24.82
2017-09-01T13:14:34.265Z,25.14
2017-09-01T13:17:01.841Z,24.45
2017-09-01T13:19:29.344Z,24.17
2017-09-01T13:21:56.893Z,24.86
2017-09-01T13:24:24.419Z,25.47
2017-09-01T13:26:51.897Z,25.29
2017-09-01T13:29:19.390Z,25.36
2017-09-01T13:31:46.879Z,25.58
2017-09-01T13:34:14.375Z,25.71
2017-09-01T13:36:41.864Z,25.53
2017-09-01T13:39:09.404Z,25.77
2017-09-01T13:41:36.878Z,25.83
2017-09-01T13:44:04.375Z,26.29
2017-09-01T13:46:31.851Z,26.49
2017-09-01T13:48:59.356Z,25.66
2017-09-01T13:51:27.801Z,25.19
2017-09-01T13:53:55.318Z,24.80
2017-09-01T13:56:22.780Z,24.85
2017-09-01T13:58:50.325Z,25.15
2017-09-01T14:01:17.814Z,25.18
2017-09-01T14:03:45.292Z,24.89
2017-09-01T14:06:12.792Z,24.85
2017-09-01T14:08:40.285Z,24.80
2017-09-01T14:11:07.791Z,24.91
2017-09-01T14:13:35.297Z,24.42
2017-09-01T14:16:02.838Z,24.35
2017-09-01T14:18:30.325Z,24.47
2017-09-01T14:20:57.821Z,24.46
2017-09-01T14:23:25.317Z,24.63
2017-09-01T14:25:52.821Z,25.15
2017-09-01T14:28:20.307Z,25.76
2017-09-01T14:30:47.791Z,26.63
2017-09-01T14:33:15.297Z,26.86
2017-09-01T14:35:42.897Z,26.60
2017-09-01T14:38:10.373Z,26.55
2017-09-01T14:40:37.937Z,26.90
2017-09-01T14:43:05.415Z,27.63
2017-09-01T14:45:32.923Z,28.07
2017-09-01T14:48:00.391Z,28.57
2017-09-01T14:50:28.882Z,28.60
2017-09-01T14:52:56.369Z,28.22
2017-09-01T14:55:23.859Z,27.72
2017-09-01T14:57:52.260Z,26.45
2017-09-01T15:00:19.762Z,26.03
2017-09-01T15:02:47.308Z,26.00
2017-09-01T15:05:14.809Z,25.89
2017-09-01T15:07:42.311Z,25.54
2017-09-01T15:10:09.795Z,25.58
2017-09-01T15:12:37.310Z,25.30
2017-09-01T15:15:05.190Z,25.07
2017-09-01T15:17:32.706Z,25.78
2017-09-01T15:20:00.198Z,26.59
2017-09-01T15:22:27.707Z,27.07
2017-09-01T15:24:55.270Z,26.38
2017-09-01T15:27:22.821Z,26.76
2017-09-01T15:29:50.283Z,27.13
2017-09-01T15:32:17.786Z,26.57
2017-09-01T15:34:45.260Z,26.93
2017-09-01T15:37:12.750Z,27.15
2017-09-01T15:39:41.216Z,27.23
2017-09-01T15:42:09.768Z,27.60
2017-09-01T15:44:37.313Z,27.84
2017-09-01T15:47:04.774Z,28.21
2017-09-01T15:49:32.290Z,26.62
2017-09-01T15:51:59.820Z,25.69
2017-09-01T15:54:27.346Z,25.29
2017-09-01T15:56:54.869Z,24.63
2017-09-01T15:59:22.341Z,24.46
2017-09-01T16:01:49.940Z,24.37
2017-09-01T16:04:17.421Z,24.32
2017-09-01T16:06:44.918Z,23.94
2017-09-01T16:09:12.394Z,23.63
2017-09-01T16:11:40.194Z,23.84
2017-09-01T16:14:07.721Z,23.98
2017-09-01T16:16:35.232Z,23.94
2017-09-01T16:19:02.757Z,24.27
2017-09-01T16:21:30.254Z,24.12
2017-09-01T16:23:57.757Z,23.88
2017-09-01T16:26:25.255Z,24.04
2017-09-01T16:28:52.781Z,23.48
2017-09-01T16:31:20.303Z,23.40
2017-09-01T16:36:21.603Z,23.20
2017-09-01T16:38:49.324Z,23.09
2017-09-01T16:41:17.187Z,22.88
2017-09-01T16:43:44.657Z,22.72
2017-09-01T16:46:12.282Z,22.86
2017-09-01T16:48:40.013Z,22.61
2017-09-01T16:51:07.613Z,22.50
2017-09-01T16:53:35.097Z,22.51
2017-09-01T16:56:02.615Z,22.52
2017-09-01T16:58:30.159Z,22.89
2017-09-01T17:00:57.631Z,23.44
2017-09-01T17:03:25.129Z,23.51
2017-09-01T17:05:52.615Z,23.84
2017-09-01T17:08:20.112Z,23.98
2017-09-01T17:10:47.601Z,23.77
2017-09-01T17:13:15.471Z,23.39
2017-09-01T17:15:42.941Z,22.94
2017-09-01T17:18:10.430Z,22.63
2017-09-01T17:20:37.913Z,22.73
2017-09-01T17:23:05.547Z,22.35
2017-09-01T17:25:33.059Z,22.36
2017-09-01T17:28:00.576Z,22.27
2017-09-01T17:30:28.989Z,22.22
2017-09-01T17:32:56.456Z,21.84
2017-09-01T17:35:23.965Z,22.04
2017-09-01T17:37:51.434Z,22.22
2017-09-01T17:40:18.966Z,22.13
2017-09-01T17:42:46.464Z,22.24
2017-09-01T17:45:13.941Z,22.36
2017-09-01T17:47:41.428Z,22.46
2017-09-01T17:50:08.925Z,22.45
2017-09-01T17:52:36.442Z,22.31
2017-09-01T17:55:03.901Z,22.51
2017-09-01T17:57:31.399Z,22.53
2017-09-01T17:59:58.863Z,22.57
2017-09-01T18:02:26.359Z,22.47
2017-09-01T18:04:53.877Z,22.42
2017-09-01T18:07:21.338Z,22.48
2017-09-01T18:09:48.951Z,22.33
2017-09-01T18:12:16.460Z,22.31
2017-09-01T18:14:44.001Z,21.78
2017-09-01T18:17:11.506Z,21.83
2017-09-01T18:19:38.983Z,22.12
2017-09-01T18:22:06.602Z,22.25
2017-09-01T18:24:34.082Z,21.98
2017-09-01T18:27:01.571Z,21.86
2017-09-01T18:29:29.060Z,22.00
2017-09-01T18:31:56.539Z,21.78
2017-09-01T18:34:24.188Z,21.64
2017-09-01T18:36:51.654Z,21.58
2017-09-01T18:39:19.134Z,21.29
2017-09-01T18:41:46.649Z,21.32
2017-09-01T18:44:14.114Z,21.30
2017-09-01T18:46:42.264Z,20.73
2017-09-01T18:49:11.502Z,20.63
2017-09-01T18:51:39.050Z,20.59
2017-09-01T18:54:06.537Z,20.72
2017-09-01T18:56:34.019Z,20.95
2017-09-01T18:59:01.535Z,21.13
2017-09-01T19:01:28.986Z,20.68
2017-09-01T19:03:56.482Z,20.86
2017-09-01T19:06:23.965Z,21.09
2017-09-01T19:08:51.444Z,21.32
2017-09-01T19:11:18.955Z,21.61
2017-09-01T19:13:46.458Z,21.85
2017-09-01T19:16:13.931Z,22.05
2017-09-01T19:18:41.422Z,21.92
2017-09-01T19:21:08.890Z,21.63
2017-09-01T19:23:36.364Z,21.29
2017-09-01T19:26:03.890Z,20.96
2017-09-01T19:28:31.368Z,20.64
2017-09-01T19:30:58.861Z,20.24
2017-09-01T19:33:26.330Z,20.22
2017-09-01T19:35:53.879Z,20.19
2017-09-01T19:38:21.447Z,20.25
2017-09-01T19:40:48.901Z,20.26
2017-09-01T19:43:16.408Z,20.19
2017-09-01T19:45:43.900Z,20.03
2017-09-01T19:48:11.414Z,20.04
2017-09-01T19:50:38.874Z,20.10
2017-09-01T19:53:06.376Z,19.54
2017-09-01T19:55:33.855Z,19.98
2017-09-01T19:58:01.377Z,20.00
2017-09-01T20:00:28.900Z,19.88
2017-09-01T20:02:56.353Z,19.82
2017-09-01T20:05:23.884Z,19.83
2017-09-01T20:07:51.435Z,19.77
2017-09-01T20:10:18.956Z,19.64
2017-09-01T20:12:46.442Z,19.65
2017-09-01T20:15:13.979Z,19.54
2017-09-01T20:17:41.494Z,19.41
2017-09-01T20:20:09.398Z,19.40
2017-09-01T20:22:36.858Z,19.34
2017-09-01T20:25:05.287Z,19.32
2017-09-01T20:27:32.781Z,19.45
2017-09-01T20:30:00.243Z,19.52
2017-09-01T20:32:27.763Z,19.53
2017-09-01T20:34:55.233Z,19.35
2017-09-01T20:37:22.839Z,19.29
2017-09-01T20:39:50.306Z,19.34
2017-09-01T20:42:17.789Z,19.28
2017-09-01T20:44:45.303Z,19.27
2017-09-01T20:47:12.800Z,19.23
2017-09-01T20:49:40.293Z,19.34
2017-09-01T20:52:07.801Z,19.20
2017-09-01T20:54:35.313Z,19.13
2017-09-01T20:57:02.776Z,19.19
2017-09-01T20:59:30.320Z,19.19
2017-09-01T21:01:57.915Z,19.16
2017-09-01T21:04:25.380Z,19.16
2017-09-01T21:06:52.892Z,19.04
2017-09-01T21:09:20.357Z,19.09
2017-09-01T21:11:47.864Z,19.19
2017-09-01T21:14:15.342Z,19.13
2017-09-01T21:16:43.203Z,19.14
2017-09-01T21:19:14.362Z,19.23
2017-09-01T21:21:41.841Z,19.34
2017-09-01T21:24:09.341Z,19.31
2017-09-01T21:26:36.805Z,19.09
2017-09-01T21:29:04.347Z,18.95
2017-09-01T21:31:31.836Z,18.79
2017-09-01T21:33:59.322Z,18.71
2017-09-01T21:36:26.793Z,18.63
2017-09-01T21:38:54.297Z,18.70
2017-09-01T21:41:21.793Z,18.70
2017-09-01T21:43:49.291Z,18.63
2017-09-01T21:46:16.763Z,18.56
2017-09-01T21:48:44.254Z,18.43
2017-09-01T21:51:11.784Z,18.44
2017-09-01T21:53:39.282Z,18.42
2017-09-01T21:56:06.908Z,18.30
2017-09-01T21:58:34.426Z,18.25
2017-09-01T22:01:13.587Z,18.29
2017-09-01T22:03:41.066Z,18.35
2017-09-01T22:06:08.599Z,18.28
2017-09-01T22:08:36.074Z,18.06
2017-09-01T22:11:03.593Z,18.04
2017-09-01T22:13:31.102Z,18.15
2017-09-01T22:15:58.635Z,18.18
2017-09-01T22:18:26.133Z,18.10
2017-09-01T22:20:53.645Z,18.08
2017-09-01T22:23:21.186Z,17.99
2017-09-01T22:25:48.687Z,17.96
2017-09-01T22:28:16.142Z,17.95
2017-09-01T22:30:43.634Z,17.89
2017-09-01T22:33:11.138Z,17.81
2017-09-01T22:35:38.639Z,17.77
2017-09-01T22:38:07.125Z,17.78
2017-09-01T22:40:34.639Z,17.81
2017-09-01T22:43:02.107Z,17.71
2017-09-01T22:45:30.470Z,17.54
2017-09-01T22:47:57.935Z,17.53
2017-09-01T22:50:25.410Z,17.45
2017-09-01T22:52:52.887Z,17.45
2017-09-01T22:55:20.962Z,17.58
2017-09-01T22:57:48.488Z,17.60
2017-09-01T23:00:27.746Z,17.56
2017-09-01T23:02:55.247Z,17.41
2017-09-01T23:05:22.721Z,17.03
2017-09-01T23:07:50.222Z,17.05
2017-09-01T23:10:17.722Z,17.13
2017-09-01T23:12:45.181Z,17.17
2017-09-01T23:15:12.664Z,17.00
2017-09-01T23:17:40.120Z,16.86
2017-09-01T23:20:07.611Z,16.81
2017-09-01T23:22:35.095Z,16.78
2017-09-01T23:25:03.133Z,16.75
2017-09-01T23:27:30.647Z,16.54
2017-09-01T23:29:58.713Z,16.64
2017-09-01T23:32:26.230Z,16.58
2017-09-01T23:34:53.736Z,16.73
2017-09-01T23:37:21.314Z,16.83
2017-09-01T23:39:49.679Z,16.86
2017-09-01T23:42:18.102Z,16.90
2017-09-01T23:44:45.582Z,17.04
2017-09-01T23:47:13.071Z,16.99
2017-09-01T23:49:40.543Z,16.96
2017-09-01T23:52:08.033Z,16.95
2017-09-01T23:54:35.496Z,17.03
2017-09-01T23:57:03.003Z,17.01
2017-09-01T23:59:30.473Z,16.98
